VAM Template | Vabird

Vabird! Vabird Marcello Mazzieri




 INFORMACIÓN METAR y TAF
METAR FOR LEMG
ADDS - METARS form results

(0415 UTC 21 October 2020)
Data provider http://aviationweather.gov/metar/data/
 
METAR text: LEMG 210400Z 16006KT 120V200 9999 -RA SCT035 BKN050 19/17 Q1010 NOSIG
Conditions at: LEMG (MALAGA (CIV/MIL), ES) observed 0400 UTC 21 October 2020
Temperature: 19.0°C (66°F)
Dewpoint: 17.0°C (63°F) [RH = 88%]
Pressure (altimeter): 29.82 inches Hg (1010.0 mb)
Winds: from the SSE (160 degrees) at 7 MPH (6 knots; 3.1 m/s)
Visibility: 6 or more miles (10+ km)
Ceiling: 5000 feet AGL
Clouds: scattered clouds at 3500 feet AGL
broken clouds at 5000 feet AGL
Weather: -RA  (light rain)

METAR text: LEMG 210330Z 15007KT 9999 FEW045 SCT060 19/17 Q1010 NOSIG
Conditions at: LEMG (MALAGA (CIV/MIL), ES) observed 0330 UTC 21 October 2020
Temperature: 19.0°C (66°F)
Dewpoint: 17.0°C (63°F) [RH = 88%]
Pressure (altimeter): 29.82 inches Hg (1010.0 mb)
Winds: from the SSE (150 degrees) at 8 MPH (7 knots; 3.6 m/s)
Visibility: 6 or more miles (10+ km)
Ceiling: at least 12,000 feet AGL
Clouds: few clouds at 4500 feet AGL
scattered clouds at 6000 feet AGL
Weather: no significant weather observed at this time

Forecast for: LEMG (MALAGA (CIV/MIL), ES)
Text: TAF LEMG 202300Z 2100/2124 13006KT 9999 FEW015 SCT025 TX22/2113Z TN15/2104Z
Forecast period: 0000 UTC 21 October 2020 to 0000 UTC 22 October 2020
Forecast type: FROM: standard forecast or significant change
Winds: from the SE (130 degrees) at 7 MPH (6 knots; 3.1 m/s)
Visibility: 6 or more miles (10+ km)
Ceiling: at least 12,000 feet AGL
Clouds: few clouds at 1500 feet AGL
scattered clouds at 2500 feet AGL
Weather: no significant weather forecast for this period
Text: PROB40
Forecast period: 0000 to 1400 UTC 21 October 2020
Forecast type: TEMPORARY: The following changes expected for less than half the time period
Visibility: 2.49 miles (4.01 km)
Ceiling: 600 feet AGL
Clouds: broken clouds at 600 feet AGL
Weather: RA BR  (moderate rain, mist)
Text: TEMPO 2100/2114 4000 RA BR BKN006
Forecast period: 1000 to 1400 UTC 21 October 2020
Forecast type: TEMPORARY: The following changes expected for less than half the time period
Winds: from the SSW (200 degrees) at 8 MPH (7 knots; 3.6 m/s)
Visibility: missing
Ceiling: unknown
Clouds: missing
Weather: no significant weather forecast for this period

 MAPA DE AEROPUERTO

 INFORMACIÓN DE PISTA